Time;durP1;ratioP1;P1;durP2;ratioP2;P2;SDS_P1;SDS_P2;PMS_P1;PMS_P2;Temp;Humidity;BMP_temperature;BMP_pressure;BME280_temperature;BME280_humidity;BME280_pressure;Samples;Min_cycle;Max_cycle;Signal;HPM_P1;HPM_P2
2023/06/22 00:00:00;;;;;;;3.20;1.90;;;;;;;;;;4384433;32;71697;-59
2023/06/22 00:02:47;;;;;;;3.40;1.95;;;;;;;;;;4363367;32;64799;-60
2023/06/22 00:05:34;;;;;;;2.95;1.90;;;;;;;;;;4362723;32;67829;-59
2023/06/22 00:08:21;;;;;;;;;;;;;;;;;;4383747;32;60183;-58
2023/06/22 00:11:07;;;;;;;3.00;1.77;;;;;;;;;;4383069;32;70198;-58
2023/06/22 00:13:54;;;;;;;2.40;1.67;;;;;;;;;;4383602;32;69330;-58
2023/06/22 00:16:42;;;;;;;1.70;1.52;;;;;;;;;;4372595;32;66665;-58
2023/06/22 00:19:29;;;;;;;2.62;1.52;;;;;;;;;;4372248;32;71624;-59
2023/06/22 00:22:16;;;;;;;3.08;1.77;;;;;;;;;;4371909;32;66892;-60
2023/06/22 00:25:03;;;;;;;4.20;1.70;;;;;;;;;;4361813;32;69923;-59
2023/06/22 00:30:34;;;;;;;2.15;1.52;;;;;;;;;;3847653;37;43856;-59
2023/06/22 00:33:21;;;;;;;2.47;1.65;;;;;;;;;;4398894;32;59091;-59
2023/06/22 00:36:13;;;;;;;4.62;1.40;;;;;;;;;;4388152;32;70323;-59
2023/06/22 00:38:59;;;;;;;3.25;1.80;;;;;;;;;;4409875;32;68973;-59
2023/06/22 00:41:46;;;;;;;2.97;1.60;;;;;;;;;;4409775;32;66686;-59
2023/06/22 00:44:35;;;;;;;2.00;1.20;;;;;;;;;;4409794;32;70771;-58
2023/06/22 00:47:22;;;;;;;3.35;2.08;;;;;;;;;;4399193;32;65891;-59
2023/06/22 00:50:09;;;;;;;2.35;1.58;;;;;;;;;;4379686;32;66708;-58
2023/06/22 00:52:58;;;;;;;2.90;1.73;;;;;;;;;;4393339;32;59351;-59
2023/06/22 00:55:51;;;;;;;4.12;1.62;;;;;;;;;;4388198;32;70747;-60
2023/06/22 00:58:41;;;;;;;3.17;1.60;;;;;;;;;;4388770;32;66418;-59
2023/06/22 01:01:28;;;;;;;2.37;1.45;;;;;;;;;;4399399;32;67471;-60
2023/06/22 01:04:16;;;;;;;2.47;1.50;;;;;;;;;;4409865;32;59989;-59
2023/06/22 01:07:23;;;;;;;2.60;1.90;;;;;;;;;;4398181;32;71042;-59
2023/06/22 01:10:30;;;;;;;1.48;1.30;;;;;;;;;;4387019;32;69858;-59
2023/06/22 01:13:24;;;;;;;1.73;1.27;;;;;;;;;;4409316;32;66894;-58
2023/06/22 01:16:33;;;;;;;4.55;1.60;;;;;;;;;;4398044;32;72371;-58
2023/06/22 01:19:55;;;;;;;3.33;1.75;;;;;;;;;;4388238;32;65781;-60
2023/06/22 01:23:07;;;;;;;2.53;1.67;;;;;;;;;;4399114;32;69461;-58
2023/06/22 01:26:00;;;;;;;3.05;1.90;;;;;;;;;;4409159;32;68607;-58
2023/06/22 01:28:48;;;;;;;2.85;1.52;;;;;;;;;;4408849;32;71821;-59
2023/06/22 01:31:36;;;;;;;2.25;1.33;;;;;;;;;;4398446;32;65062;-59
2023/06/22 01:34:22;;;;;;;2.12;1.42;;;;;;;;;;4398318;32;67507;-60
2023/06/22 01:37:09;;;;;;;3.90;1.60;;;;;;;;;;4398637;32;59793;-59
2023/06/22 01:39:56;;;;;;;2.08;1.58;;;;;;;;;;4396350;32;70746;-59
2023/06/22 01:42:44;;;;;;;2.10;1.33;;;;;;;;;;4377503;32;69317;-59
2023/06/22 01:45:31;;;;;;;2.33;1.77;;;;;;;;;;4378728;32;67430;-60
2023/06/22 01:48:18;;;;;;;2.83;1.60;;;;;;;;;;4387939;32;60239;-59
2023/06/22 01:51:05;;;;;;;1.58;1.10;;;;;;;;;;4387905;32;70656;-58
2023/06/22 01:53:52;;;;;;;3.45;1.92;;;;;;;;;;4377444;32;69188;-59
2023/06/22 01:56:39;;;;;;;1.77;1.20;;;;;;;;;;4388706;32;66781;-58
2023/06/22 01:59:35;;;;;;;;;;;;;;;;;;4399283;32;70760;-60
2023/06/22 02:02:26;;;;;;;4.18;1.55;;;;;;;;;;4388921;32;65904;-59
2023/06/22 02:05:17;;;;;;;3.08;1.48;;;;;;;;;;4399940;32;67816;-58
2023/06/22 02:08:16;;;;;;;3.05;1.75;;;;;;;;;;4388557;32;60012;-58
2023/06/22 02:11:03;;;;;;;3.35;1.70;;;;;;;;;;4388742;32;70719;-59
2023/06/22 02:13:51;;;;;;;2.08;1.52;;;;;;;;;;4377134;32;64910;-59
2023/06/22 02:16:38;;;;;;;2.42;1.70;;;;;;;;;;4377485;32;66738;-59
2023/06/22 02:19:25;;;;;;;1.83;1.48;;;;;;;;;;4377345;32;60468;-59
2023/06/22 02:22:13;;;;;;;3.08;1.85;;;;;;;;;;4387753;32;70768;-59
2023/06/22 02:25:00;;;;;;;1.90;1.67;;;;;;;;;;4387731;32;69566;-59
2023/06/22 02:27:47;;;;;;;2.90;1.50;;;;;;;;;;4377206;32;66598;-60
2023/06/22 02:30:36;;;;;;;2.90;1.40;;;;;;;;;;4376662;32;72086;-59
2023/06/22 02:33:23;;;;;;;3.17;1.60;;;;;;;;;;4388313;32;66269;-59
2023/06/22 02:36:12;;;;;;;3.17;1.73;;;;;;;;;;4401313;32;67613;-58
2023/06/22 02:39:01;;;;;;;2.87;1.50;;;;;;;;;;4388411;32;67869;-59
2023/06/22 02:41:48;;;;;;;1.50;1.10;;;;;;;;;;4386535;32;72340;-60
2023/06/22 02:44:35;;;;;;;4.30;1.80;;;;;;;;;;4376916;32;65065;-60
2023/06/22 02:47:22;;;;;;;3.50;1.50;;;;;;;;;;4387414;32;67650;-59
2023/06/22 02:50:09;;;;;;;3.83;1.48;;;;;;;;;;4376980;32;60090;-60
2023/06/22 02:52:56;;;;;;;2.15;1.85;;;;;;;;;;4376052;32;70369;-59
2023/06/22 02:55:43;;;;;;;2.83;1.52;;;;;;;;;;4365334;32;69899;-58
2023/06/22 02:58:29;;;;;;;2.53;1.80;;;;;;;;;;4398272;32;66746;-59
2023/06/22 03:01:16;;;;;;;2.33;1.45;;;;;;;;;;4388144;32;60272;-59
2023/06/22 03:04:04;;;;;;;2.90;1.62;;;;;;;;;;4377926;32;70428;-66
2023/06/22 03:06:51;;;;;;;1.77;1.37;;;;;;;;;;4388254;32;69434;-60
2023/06/22 03:09:38;;;;;;;4.35;1.85;;;;;;;;;;4390148;32;65565;-59
2023/06/22 03:12:25;;;;;;;;;;;;;;;;;;4379938;32;71377;-58
2023/06/22 03:15:13;;;;;;;2.80;1.63;;;;;;;;;;4396454;32;64280;-58
2023/06/22 03:17:59;;;;;;;2.70;1.70;;;;;;;;;;4369713;32;68485;-59
2023/06/22 03:20:46;;;;;;;3.12;1.95;;;;;;;;;;4398487;32;60247;-59
2023/06/22 03:23:33;;;;;;;2.22;1.55;;;;;;;;;;4375588;32;71057;-58
2023/06/22 03:26:20;;;;;;;2.35;1.60;;;;;;;;;;4386998;32;65074;-60
2023/06/22 03:29:07;;;;;;;2.25;1.20;;;;;;;;;;4375049;32;67915;-59
2023/06/22 03:31:54;;;;;;;2.17;1.33;;;;;;;;;;4388683;32;59331;-60
2023/06/22 03:34:46;;;;;;;3.03;1.90;;;;;;;;;;4376530;32;70408;-57
2023/06/22 03:37:33;;;;;;;2.85;1.70;;;;;;;;;;4365316;32;70381;-58
2023/06/22 03:40:20;;;;;;;2.40;1.35;;;;;;;;;;4397495;32;67368;-60
2023/06/22 03:43:07;;;;;;;;;;;;;;;;;;4397707;32;70748;-59
2023/06/22 03:45:53;;;;;;;5.37;1.70;;;;;;;;;;4398840;32;64434;-59
2023/06/22 03:48:40;;;;;;;3.65;1.77;;;;;;;;;;4386460;32;68238;-59
2023/06/22 03:51:27;;;;;;;4.80;1.95;;;;;;;;;;4386764;32;66546;-59
2023/06/22 03:54:14;;;;;;;2.03;1.37;;;;;;;;;;4397043;32;72058;-60
2023/06/22 03:57:01;;;;;;;;;;;;;;;;;;4397847;32;65788;-59
2023/06/22 03:59:48;;;;;;;2.40;1.25;;;;;;;;;;4397934;32;66764;-60
2023/06/22 04:02:34;;;;;;;2.08;1.48;;;;;;;;;;4400087;32;59256;-59
2023/06/22 04:05:22;;;;;;;1.45;1.35;;;;;;;;;;4388089;32;70165;-59
2023/06/22 04:08:08;;;;;;;;;;;;;;;;;;4365115;32;70124;-58
2023/06/22 04:10:55;;;;;;;4.55;1.10;;;;;;;;;;4397052;32;67011;-60
2023/06/22 04:13:41;;;;;;;1.60;1.33;;;;;;;;;;4397510;32;71807;-59
2023/06/22 04:16:29;;;;;;;1.50;1.12;;;;;;;;;;4375869;32;70895;-59
2023/06/22 04:19:17;;;;;;;1.48;1.05;;;;;;;;;;4386477;32;69304;-59
2023/06/22 04:22:06;;;;;;;5.85;1.33;;;;;;;;;;4388691;32;66648;-60
2023/06/22 04:24:53;;;;;;;0.50;0.45;;;;;;;;;;4386497;32;71605;-58
2023/06/22 04:27:40;;;;;;;2.80;1.65;;;;;;;;;;4375855;32;65788;-59
2023/06/22 04:30:26;;;;;;;1.87;0.98;;;;;;;;;;4386002;32;67723;-59
2023/06/22 04:33:14;;;;;;;2.80;1.50;;;;;;;;;;4376087;32;58997;-58
2023/06/22 04:36:01;;;;;;;0.88;0.70;;;;;;;;;;4396258;32;69633;-59
2023/06/22 04:38:47;;;;;;;3.85;1.42;;;;;;;;;;4398063;32;69530;-60
2023/06/22 04:41:41;;;;;;;1.83;1.20;;;;;;;;;;4375410;32;66840;-58
2023/06/22 04:44:28;;;;;;;2.40;1.40;;;;;;;;;;4375735;32;59951;-60
2023/06/22 04:49:21;;;;;;;3.92;1.60;;;;;;;;;;3868861;36;43467;-59
2023/06/22 04:52:10;;;;;;;1.67;1.12;;;;;;;;;;4390648;32;58107;-60
2023/06/22 04:55:00;;;;;;;3.08;1.37;;;;;;;;;;4415096;32;69633;-58
2023/06/22 04:57:50;;;;;;;1.92;0.98;;;;;;;;;;4401397;32;67205;-59
2023/06/22 05:00:36;;;;;;;2.83;1.95;;;;;;;;;;4403775;32;66601;-59
2023/06/22 05:03:25;;;;;;;2.58;1.50;;;;;;;;;;4414405;32;71774;-59
2023/06/22 05:06:13;;;;;;;1.87;1.12;;;;;;;;;;4404124;32;64981;-59
2023/06/22 05:09:00;;;;;;;1.87;1.35;;;;;;;;;;4379765;32;66667;-60
2023/06/22 05:11:46;;;;;;;;;;;;;;;;;;4401097;32;59410;-58
2023/06/22 05:14:33;;;;;;;2.33;1.20;;;;;;;;;;4414571;32;72079;-58
2023/06/22 05:17:19;;;;;;;2.25;1.45;;;;;;;;;;4427123;32;65896;-58
2023/06/22 05:20:08;;;;;;;3.58;1.15;;;;;;;;;;4426949;32;67798;-59
2023/06/22 05:22:55;;;;;;;1.48;0.98;;;;;;;;;;4404014;32;60200;-58
2023/06/22 05:25:41;;;;;;;1.55;1.45;;;;;;;;;;4413952;32;70685;-60
2023/06/22 05:28:28;;;;;;;;;;;;;;;;;;4414397;32;69426;-59
2023/06/22 05:31:15;;;;;;;1.23;0.80;;;;;;;;;;4414138;32;68181;-60
2023/06/22 05:34:01;;;;;;;1.90;1.23;;;;;;;;;;4403183;32;71526;-59
2023/06/22 05:36:48;;;;;;;;;;;;;;;;;;4396717;32;65061;-59
2023/06/22 05:39:37;;;;;;;3.58;1.08;;;;;;;;;;4374538;32;68348;-58
2023/06/22 05:42:25;;;;;;;1.80;0.93;;;;;;;;;;4364110;32;66599;-59
2023/06/22 05:45:12;;;;;;;0.77;0.73;;;;;;;;;;4387816;32;71684;-59
2023/06/22 05:47:58;;;;;;;;;;;;;;;;;;4398555;32;66282;-58
2023/06/22 05:50:44;;;;;;;3.05;1.33;;;;;;;;;;4387703;32;67634;-58
2023/06/22 05:53:31;;;;;;;1.10;0.80;;;;;;;;;;4398779;32;60061;-58
2023/06/22 05:56:18;;;;;;;1.02;0.73;;;;;;;;;;4398456;32;69630;-59
2023/06/22 05:59:06;;;;;;;1.23;0.95;;;;;;;;;;4360185;32;70507;-58
2023/06/22 06:01:52;;;;;;;1.27;0.77;;;;;;;;;;4354331;32;66644;-58
2023/06/22 06:04:39;;;;;;;1.42;0.95;;;;;;;;;;4394231;32;60084;-63
2023/06/22 06:07:27;;;;;;;;;;;;;;;;;;4409743;32;70556;-58
2023/06/22 06:10:14;;;;;;;1.05;0.70;;;;;;;;;;4389172;32;68790;-59
2023/06/22 06:13:07;;;;;;;1.75;1.08;;;;;;;;;;4354038;32;65649;-60
2023/06/22 06:15:55;;;;;;;1.70;0.95;;;;;;;;;;4377277;32;69874;-59
2023/06/22 06:18:42;;;;;;;0.70;0.70;;;;;;;;;;4355298;32;64149;-60
2023/06/22 06:21:29;;;;;;;1.48;1.20;;;;;;;;;;4367225;32;67857;-58
2023/06/22 06:24:15;;;;;;;1.23;0.90;;;;;;;;;;4374870;32;58894;-58
2023/06/22 06:27:04;;;;;;;;;;;;;;;;;;4377394;32;70483;-59
2023/06/22 06:29:51;;;;;;;1.67;1.20;;;;;;;;;;4388042;32;64987;-59
2023/06/22 06:32:38;;;;;;;;;;;;;;;;;;4374897;32;66407;-58
2023/06/22 06:35:26;;;;;;;3.83;1.62;;;;;;;;;;4375038;32;57477;-59
2023/06/22 06:38:13;;;;;;;4.97;1.25;;;;;;;;;;4377716;32;70895;-59
2023/06/22 06:40:59;;;;;;;;;;;;;;;;;;4388150;32;69581;-58
2023/06/22 06:43:46;;;;;;;2.60;1.50;;;;;;;;;;4387881;32;68256;-60
2023/06/22 06:46:33;;;;;;;2.15;1.10;;;;;;;;;;4387488;32;70758;-58
2023/06/22 06:49:19;;;;;;;2.17;1.45;;;;;;;;;;4387948;32;64809;-58
2023/06/22 06:52:06;;;;;;;2.08;1.20;;;;;;;;;;4377392;32;66736;-58
2023/06/22 06:54:53;;;;;;;3.67;1.20;;;;;;;;;;4377030;32;67675;-59
2023/06/22 06:57:40;;;;;;;3.20;1.40;;;;;;;;;;4366222;32;70681;-57
2023/06/22 07:00:27;;;;;;;1.52;1.35;;;;;;;;;;4377230;32;66288;-59
2023/06/22 07:03:14;;;;;;;;;;;;;;;;;;4364482;32;66357;-59
2023/06/22 07:06:00;;;;;;;2.33;1.40;;;;;;;;;;4377328;32;59556;-58
2023/06/22 07:08:47;;;;;;;3.12;1.50;;;;;;;;;;4373899;32;71677;-58
2023/06/22 07:11:35;;;;;;;2.28;1.52;;;;;;;;;;4376079;32;69288;-58
2023/06/22 07:14:22;;;;;;;2.42;1.62;;;;;;;;;;4376894;32;68167;-59
2023/06/22 07:17:09;;;;;;;2.00;1.20;;;;;;;;;;4363833;32;60876;-58
2023/06/22 07:19:55;;;;;;;2.45;1.80;;;;;;;;;;4376676;32;70461;-58
2023/06/22 07:22:44;;;;;;;2.28;1.75;;;;;;;;;;4373868;32;70517;-59
2023/06/22 07:25:31;;;;;;;2.83;1.30;;;;;;;;;;4352629;32;67652;-59
2023/06/22 07:28:17;;;;;;;;;;;;;;;;;;4376674;32;71824;-58
2023/06/22 07:31:04;;;;;;;0.98;0.77;;;;;;;;;;4387789;32;65904;-59
2023/06/22 07:33:51;;;;;;;1.73;1.30;;;;;;;;;;4367302;32;66565;-58
2023/06/22 07:36:38;;;;;;;2.12;1.40;;;;;;;;;;4387238;32;60424;-59
2023/06/22 07:39:26;;;;;;;1.45;1.15;;;;;;;;;;4399069;32;70477;-58
2023/06/22 07:42:12;;;;;;;2.00;1.20;;;;;;;;;;4386974;32;66230;-58
2023/06/22 07:44:59;;;;;;;;;;;;;;;;;;4376663;32;67064;-58
2023/06/22 07:47:45;;;;;;;1.50;1.30;;;;;;;;;;4376440;32;59890;-56
2023/06/22 07:50:31;;;;;;;2.22;1.90;;;;;;;;;;4363161;32;71119;-58
2023/06/22 07:53:18;;;;;;;;;;;;;;;;;;4404418;32;69223;-58
2023/06/22 07:56:06;;;;;;;2.20;1.27;;;;;;;;;;4387618;32;67767;-59
2023/06/22 07:58:53;;;;;;;1.75;1.37;;;;;;;;;;4373295;32;72169;-58
2023/06/22 08:01:40;;;;;;;5.72;1.48;;;;;;;;;;4386943;32;65081;-59
2023/06/22 08:07:11;;;;;;;1.80;1.30;;;;;;;;;;3848092;37;43478;-58
2023/06/22 08:09:58;;;;;;;2.10;1.52;;;;;;;;;;4398882;32;60146;-59
2023/06/22 08:12:44;;;;;;;;;;;;;;;;;;4410416;32;70535;-57
2023/06/22 08:15:31;;;;;;;1.17;1.00;;;;;;;;;;4387914;32;69958;-59
2023/06/22 08:18:18;;;;;;;;;;;;;;;;;;4399407;32;67565;-59
2023/06/22 08:21:04;;;;;;;1.73;1.17;;;;;;;;;;4399389;32;71687;-59
2023/06/22 08:23:51;;;;;;;1.50;1.10;;;;;;;;;;4410011;32;66461;-58
2023/06/22 08:26:37;;;;;;;1.27;0.93;;;;;;;;;;4387405;32;65697;-58
2023/06/22 08:29:24;;;;;;;1.75;1.33;;;;;;;;;;4399233;32;60360;-58
2023/06/22 08:32:12;;;;;;;1.50;1.40;;;;;;;;;;4409691;32;71810;-59
2023/06/22 08:34:58;;;;;;;1.42;1.15;;;;;;;;;;4398633;32;66304;-57
2023/06/22 08:37:51;;;;;;;2.50;1.20;;;;;;;;;;4398070;32;67271;-59
2023/06/22 08:40:38;;;;;;;1.02;0.80;;;;;;;;;;4388775;32;60441;-59
2023/06/22 08:43:24;;;;;;;;;;;;;;;;;;4398093;32;70080;-58
2023/06/22 08:46:11;;;;;;;0.95;0.90;;;;;;;;;;4398634;32;69445;-58
2023/06/22 08:48:59;;;;;;;0.77;0.75;;;;;;;;;;4409383;32;66780;-57
2023/06/22 08:51:47;;;;;;;2.42;1.05;;;;;;;;;;4397790;32;73484;-58
2023/06/22 08:54:34;;;;;;;1.12;0.90;;;;;;;;;;4387593;32;65020;-58
2023/06/22 08:57:22;;;;;;;1.77;0.90;;;;;;;;;;4398537;32;69165;-59
2023/06/22 09:00:20;;;;;;;0.77;0.70;;;;;;;;;;4410556;32;66573;-58
2023/06/22 09:03:06;;;;;;;2.03;0.98;;;;;;;;;;4409144;32;70504;-60
2023/06/22 09:05:54;;;;;;;2.12;0.90;;;;;;;;;;4398302;32;65221;-58
2023/06/22 09:08:40;;;;;;;;;;;;;;;;;;4376380;32;68581;-58
2023/06/22 09:11:27;;;;;;;0.45;0.45;;;;;;;;;;4398382;32;58713;-59
2023/06/22 09:14:14;;;;;;;1.02;0.90;;;;;;;;;;4397720;32;71880;-58
2023/06/22 09:17:01;;;;;;;2.15;1.20;;;;;;;;;;4383516;32;68651;-58
2023/06/22 09:19:48;;;;;;;0.80;0.80;;;;;;;;;;4400112;32;67578;-58
2023/06/22 09:22:35;;;;;;;0.80;0.70;;;;;;;;;;4400198;32;59282;-57
2023/06/22 09:25:21;;;;;;;;;;;;;;;;;;4376889;32;70651;-57
2023/06/22 09:28:08;;;;;;;1.62;1.10;;;;;;;;;;4398405;32;69822;-58
2023/06/22 09:30:58;;;;;;;1.40;1.10;;;;;;;;;;4376555;32;68948;-59
2023/06/22 09:33:44;;;;;;;1.70;1.10;;;;;;;;;;4398399;32;71936;-58
2023/06/22 09:36:31;;;;;;;2.08;1.12;;;;;;;;;;4366280;32;66786;-58
2023/06/22 09:39:19;;;;;;;2.05;1.02;;;;;;;;;;4400703;32;67685;-59
2023/06/22 09:42:06;;;;;;;1.23;0.80;;;;;;;;;;4387718;32;59565;-57
2023/06/22 09:44:53;;;;;;;2.33;1.10;;;;;;;;;;4387689;32;70571;-59
2023/06/22 09:47:39;;;;;;;;;;;;;;;;;;4388318;32;65997;-58
2023/06/22 09:50:26;;;;;;;1.77;1.20;;;;;;;;;;4388099;32;67703;-58
2023/06/22 09:53:13;;;;;;;1.40;1.30;;;;;;;;;;4398080;32;60885;-58
2023/06/22 09:56:00;;;;;;;2.00;0.98;;;;;;;;;;4399608;32;70753;-59
2023/06/22 09:58:50;;;;;;;3.03;1.48;;;;;;;;;;4376515;32;69337;-60
2023/06/22 10:01:36;;;;;;;1.50;1.12;;;;;;;;;;4398450;32;67658;-59
2023/06/22 10:04:24;;;;;;;;;;;;;;;;;;4398185;32;71395;-59
2023/06/22 10:07:11;;;;;;;;;;;;;;;;;;4378701;32;67736;-59
2023/06/22 10:09:58;;;;;;;1.85;1.40;;;;;;;;;;4400246;32;67950;-58
2023/06/22 10:12:54;;;;;;;3.25;1.55;;;;;;;;;;4376374;32;68335;-58
2023/06/22 10:15:41;;;;;;;1.83;1.17;;;;;;;;;;4387325;32;71052;-58
2023/06/22 10:18:28;;;;;;;3.92;1.65;;;;;;;;;;4376761;32;66448;-59
2023/06/22 10:21:15;;;;;;;;;;;;;;;;;;4376986;32;67501;-58
2023/06/22 10:24:05;;;;;;;1.30;1.20;;;;;;;;;;4386785;32;59551;-58
2023/06/22 10:26:52;;;;;;;1.58;1.40;;;;;;;;;;4387539;32;70451;-58
2023/06/22 10:29:39;;;;;;;3.10;1.20;;;;;;;;;;4386564;32;68477;-60
2023/06/22 10:32:27;;;;;;;2.55;1.77;;;;;;;;;;4376273;32;68256;-60
2023/06/22 10:35:15;;;;;;;2.65;1.67;;;;;;;;;;4397535;32;60606;-58
2023/06/22 10:38:03;;;;;;;3.67;2.03;;;;;;;;;;4376773;32;70514;-59
2023/06/22 10:40:50;;;;;;;3.08;1.70;;;;;;;;;;4399105;32;69450;-59
2023/06/22 10:43:37;;;;;;;2.65;1.80;;;;;;;;;;4397810;32;66658;-59
2023/06/22 10:46:25;;;;;;;3.08;1.55;;;;;;;;;;4398895;32;71731;-58
2023/06/22 10:49:12;;;;;;;2.65;1.60;;;;;;;;;;4386764;32;66476;-59
2023/06/22 10:51:59;;;;;;;;;;;;;;;;;;4398534;32;67676;-58
2023/06/22 10:54:46;;;;;;;2.35;1.73;;;;;;;;;;4399534;32;59816;-59
2023/06/22 10:57:32;;;;;;;1.60;1.30;;;;;;;;;;4365947;32;70882;-59
2023/06/22 11:00:21;;;;;;;2.22;1.55;;;;;;;;;;4387326;32;65029;-58
2023/06/22 11:03:07;;;;;;;2.55;1.40;;;;;;;;;;4397997;32;67639;-59
2023/06/22 11:05:54;;;;;;;2.55;1.77;;;;;;;;;;4387088;32;59911;-59
2023/06/22 11:08:43;;;;;;;;;;;;;;;;;;4398104;32;70646;-57
2023/06/22 11:11:30;;;;;;;2.25;1.55;;;;;;;;;;4386861;32;69791;-58
2023/06/22 11:14:17;;;;;;;1.85;1.10;;;;;;;;;;4387303;32;67584;-58
2023/06/22 11:17:04;;;;;;;2.50;1.60;;;;;;;;;;4387430;32;71735;-58
2023/06/22 11:19:50;;;;;;;2.65;1.55;;;;;;;;;;4390308;32;66123;-60
2023/06/22 11:22:41;;;;;;;2.20;1.60;;;;;;;;;;4401719;32;67540;-60
2023/06/22 11:25:28;;;;;;;2.67;1.80;;;;;;;;;;4377404;32;67025;-59
2023/06/22 11:28:15;;;;;;;2.78;1.87;;;;;;;;;;4389938;32;72734;-60
2023/06/22 11:31:01;;;;;;;;;;;;;;;;;;4389611;32;64945;-57
2023/06/22 11:33:48;;;;;;;3.00;1.90;;;;;;;;;;4400940;32;67091;-59
2023/06/22 11:36:35;;;;;;;2.55;1.60;;;;;;;;;;4393285;32;59552;-60
2023/06/22 11:39:22;;;;;;;2.53;1.40;;;;;;;;;;4382320;32;69816;-59
2023/06/22 11:42:09;;;;;;;2.87;1.62;;;;;;;;;;4399502;32;69431;-59
2023/06/22 11:44:56;;;;;;;2.10;1.15;;;;;;;;;;4388564;32;66840;-58
2023/06/22 11:47:42;;;;;;;;;;;;;;;;;;4377971;32;71508;-66
2023/06/22 11:50:34;;;;;;;3.70;1.65;;;;;;;;;;4396979;32;69916;-58
2023/06/22 11:53:22;;;;;;;4.05;1.87;;;;;;;;;;4376019;32;68235;-59
2023/06/22 11:56:08;;;;;;;2.53;1.40;;;;;;;;;;4386144;32;68755;-58
2023/06/22 11:58:54;;;;;;;;;;;;;;;;;;4386232;32;71290;-57
2023/06/22 12:01:41;;;;;;;2.97;1.98;;;;;;;;;;4397259;32;65253;-58
2023/06/22 12:04:28;;;;;;;4.10;1.85;;;;;;;;;;4375455;32;67276;-59
2023/06/22 12:07:15;;;;;;;4.35;1.45;;;;;;;;;;4401420;32;59175;-59
2023/06/22 12:10:02;;;;;;;2.90;1.73;;;;;;;;;;4375875;32;70984;-58
2023/06/22 12:12:49;;;;;;;3.62;1.80;;;;;;;;;;4386274;32;69283;-59
2023/06/22 12:15:36;;;;;;;4.32;1.60;;;;;;;;;;4375552;32;66004;-58
2023/06/22 12:18:23;;;;;;;1.77;1.33;;;;;;;;;;4385670;32;61516;-58
2023/06/22 12:21:10;;;;;;;3.28;1.77;;;;;;;;;;4374725;32;70878;-58
2023/06/22 12:23:57;;;;;;;;;;;;;;;;;;4397151;32;69221;-59
2023/06/22 12:26:44;;;;;;;3.85;2.10;;;;;;;;;;4398048;32;67567;-59
2023/06/22 12:29:30;;;;;;;2.58;1.60;;;;;;;;;;4396810;32;70838;-58
2023/06/22 12:32:17;;;;;;;2.22;1.67;;;;;;;;;;4386217;32;65979;-59
2023/06/22 12:35:04;;;;;;;;;;;;;;;;;;4386227;32;67466;-58
2023/06/22 12:37:51;;;;;;;3.22;1.50;;;;;;;;;;4397217;32;59614;-59
2023/06/22 12:40:37;;;;;;;2.20;1.60;;;;;;;;;;4363645;32;71458;-59
2023/06/22 12:43:24;;;;;;;;;;;;;;;;;;4396882;32;65985;-59
2023/06/22 12:46:10;;;;;;;1.67;1.30;;;;;;;;;;4386220;32;68158;-59
2023/06/22 12:48:57;;;;;;;3.65;1.70;;;;;;;;;;4397038;32;59236;-58
2023/06/22 12:51:43;;;;;;;;;;;;;;;;;;4386468;32;70342;-58
2023/06/22 12:54:30;;;;;;;2.00;1.70;;;;;;;;;;4387991;32;67865;-58
2023/06/22 12:57:17;;;;;;;3.28;1.20;;;;;;;;;;4377967;32;66746;-58
2023/06/22 13:00:05;;;;;;;4.80;1.30;;;;;;;;;;4400453;32;70722;-58
2023/06/22 13:02:52;;;;;;;1.77;1.02;;;;;;;;;;4378073;32;69325;-59
2023/06/22 13:05:39;;;;;;;2.10;1.37;;;;;;;;;;4387427;32;69893;-59
2023/06/22 13:08:26;;;;;;;1.95;1.48;;;;;;;;;;4400364;32;66761;-57
2023/06/22 13:11:13;;;;;;;1.10;1.00;;;;;;;;;;4389398;32;73085;-59
2023/06/22 13:13:59;;;;;;;1.98;0.95;;;;;;;;;;4380556;32;65785;-59
2023/06/22 13:16:46;;;;;;;3.30;1.30;;;;;;;;;;4399015;32;65574;-58
2023/06/22 13:19:33;;;;;;;;;;;;;;;;;;4389254;32;60193;-60
2023/06/22 13:22:39;;;;;;;2.40;1.23;;;;;;;;;;4399023;32;70280;-59
2023/06/22 13:25:26;;;;;;;3.03;1.55;;;;;;;;;;4367026;32;68818;-59
2023/06/22 13:28:15;;;;;;;5.62;1.60;;;;;;;;;;4387775;32;68270;-58
2023/06/22 13:31:02;;;;;;;3.12;1.50;;;;;;;;;;4388338;32;60165;-60
2023/06/22 13:33:51;;;;;;;2.08;1.35;;;;;;;;;;4387874;32;69616;-59
2023/06/22 13:36:38;;;;;;;2.15;1.27;;;;;;;;;;4388272;32;69490;-59
2023/06/22 13:39:25;;;;;;;2.78;1.60;;;;;;;;;;4377522;32;66713;-59
2023/06/22 13:42:12;;;;;;;3.37;1.80;;;;;;;;;;4376330;32;72499;-58
2023/06/22 13:44:59;;;;;;;2.25;1.48;;;;;;;;;;4398697;32;65727;-58
2023/06/22 13:47:46;;;;;;;2.40;1.35;;;;;;;;;;4398401;32;66613;-59
2023/06/22 13:50:33;;;;;;;3.80;2.12;;;;;;;;;;4398909;32;60354;-58
2023/06/22 13:53:20;;;;;;;;;;;;;;;;;;4376897;32;71540;-59
2023/06/22 13:56:06;;;;;;;1.87;1.33;;;;;;;;;;4387081;32;67946;-59
2023/06/22 13:58:53;;;;;;;;;;;;;;;;;;4376586;32;68809;-59
2023/06/22 14:01:40;;;;;;;2.78;1.40;;;;;;;;;;4399897;32;59367;-59
2023/06/22 14:04:28;;;;;;;3.17;1.50;;;;;;;;;;4375814;32;71383;-59
2023/06/22 14:07:15;;;;;;;2.50;1.55;;;;;;;;;;4377202;32;68058;-58
2023/06/22 14:10:02;;;;;;;2.83;1.58;;;;;;;;;;4398348;32;67635;-59
2023/06/22 14:12:48;;;;;;;1.52;1.15;;;;;;;;;;4376822;32;70698;-58
2023/06/22 14:15:35;;;;;;;;;;;;;;;;;;4388465;32;66231;-58
2023/06/22 14:18:24;;;;;;;2.97;1.50;;;;;;;;;;4399247;32;69283;-59
2023/06/22 14:21:11;;;;;;;2.97;1.33;;;;;;;;;;4378084;32;67818;-62
2023/06/22 14:23:58;;;;;;;1.75;1.20;;;;;;;;;;4388221;32;71758;-59
2023/06/22 14:26:44;;;;;;;;;;;;;;;;;;4387929;32;65730;-58
2023/06/22 14:29:31;;;;;;;3.42;1.50;;;;;;;;;;4398373;32;68025;-59
2023/06/22 14:32:17;;;;;;;;;;;;;;;;;;4388226;32;59261;-59
2023/06/22 14:35:04;;;;;;;2.83;1.90;;;;;;;;;;4398025;32;70089;-58
2023/06/22 14:37:51;;;;;;;3.08;1.75;;;;;;;;;;4376613;32;68114;-58
2023/06/22 14:40:38;;;;;;;3.92;1.77;;;;;;;;;;4387146;32;67742;-58
2023/06/22 14:43:26;;;;;;;3.17;1.62;;;;;;;;;;4387676;32;60137;-58
2023/06/22 14:46:13;;;;;;;3.87;2.20;;;;;;;;;;4398188;32;69180;-58
2023/06/22 14:48:59;;;;;;;2.80;1.95;;;;;;;;;;4376607;32;68401;-58
2023/06/22 14:51:46;;;;;;;2.50;1.85;;;;;;;;;;4397927;32;67607;-58
2023/06/22 14:54:32;;;;;;;;;;;;;;;;;;4398122;32;71416;-59
2023/06/22 14:57:20;;;;;;;4.47;2.30;;;;;;;;;;4402034;32;66040;-59
2023/06/22 15:00:07;;;;;;;4.22;2.53;;;;;;;;;;4402344;32;66998;-59
2023/06/22 15:02:53;;;;;;;3.37;2.22;;;;;;;;;;4376440;32;60179;-59
2023/06/22 15:05:40;;;;;;;5.87;2.78;;;;;;;;;;4397497;32;70441;-59
2023/06/22 15:08:27;;;;;;;;;;;;;;;;;;4387321;32;66117;-59
2023/06/22 15:11:13;;;;;;;5.05;2.53;;;;;;;;;;4387173;32;68020;-59
2023/06/22 15:14:00;;;;;;;4.28;2.60;;;;;;;;;;4397766;32;60233;-59
2023/06/22 15:16:47;;;;;;;4.07;2.20;;;;;;;;;;4375846;32;70422;-59
2023/06/22 15:19:34;;;;;;;4.65;2.55;;;;;;;;;;4375540;32;69652;-58
2023/06/22 15:22:21;;;;;;;4.45;2.08;;;;;;;;;;4386708;32;66910;-59
2023/06/22 15:25:07;;;;;;;;;;;;;;;;;;4397604;32;71953;-58
2023/06/22 15:27:54;;;;;;;4.78;2.40;;;;;;;;;;4397559;32;65097;-58
2023/06/22 15:30:41;;;;;;;4.35;2.45;;;;;;;;;;4375195;32;67062;-60
2023/06/22 15:33:28;;;;;;;4.37;2.40;;;;;;;;;;4385854;32;68151;-59
2023/06/22 15:36:15;;;;;;;4.85;2.70;;;;;;;;;;4375728;32;72397;-59
2023/06/22 15:39:02;;;;;;;4.62;2.58;;;;;;;;;;4375966;32;65073;-58
2023/06/22 15:41:49;;;;;;;4.15;2.78;;;;;;;;;;4397226;32;67030;-59
2023/06/22 15:44:36;;;;;;;4.47;2.62;;;;;;;;;;4397582;32;60212;-59
2023/06/22 15:47:22;;;;;;;4.25;2.67;;;;;;;;;;4375696;32;70502;-58
2023/06/22 15:50:09;;;;;;;4.70;2.15;;;;;;;;;;4385964;32;70398;-59
2023/06/22 15:52:56;;;;;;;2.90;1.87;;;;;;;;;;4364397;32;68265;-59
2023/06/22 15:55:43;;;;;;;3.45;2.10;;;;;;;;;;4386020;32;60752;-59
2023/06/22 15:58:30;;;;;;;;;;;;;;;;;;4376151;32;69653;-59
2023/06/22 16:01:16;;;;;;;5.20;2.10;;;;;;;;;;4397059;32;69341;-59
2023/06/22 16:04:03;;;;;;;;;;;;;;;;;;4397340;32;66587;-59
2023/06/22 16:06:49;;;;;;;4.35;2.00;;;;;;;;;;4387214;32;72315;-59
2023/06/22 16:09:38;;;;;;;3.62;2.00;;;;;;;;;;4387424;32;65840;-58
2023/06/22 16:12:26;;;;;;;3.65;2.12;;;;;;;;;;4375629;32;67009;-59
2023/06/22 16:15:13;;;;;;;2.60;1.90;;;;;;;;;;4396987;32;60211;-58
2023/06/22 16:18:00;;;;;;;3.45;2.05;;;;;;;;;;4385877;32;70608;-59
2023/06/22 16:20:47;;;;;;;2.60;1.87;;;;;;;;;;4396912;32;64886;-59
2023/06/22 16:23:33;;;;;;;3.30;2.25;;;;;;;;;;4386228;32;66830;-58
2023/06/22 16:26:20;;;;;;;5.97;2.22;;;;;;;;;;4375737;32;60271;-59
2023/06/22 16:29:07;;;;;;;;;;;;;;;;;;4388973;32;70713;-59
2023/06/22 16:31:54;;;;;;;3.60;2.00;;;;;;;;;;4378347;32;68854;-59
2023/06/22 16:34:41;;;;;;;3.83;2.00;;;;;;;;;;4398943;32;68345;-58
2023/06/22 16:37:28;;;;;;;3.80;2.35;;;;;;;;;;4377830;32;72175;-58
2023/06/22 16:40:17;;;;;;;5.18;2.17;;;;;;;;;;4366730;32;66802;-58
2023/06/22 16:43:04;;;;;;;2.97;2.00;;;;;;;;;;4389374;32;66889;-58
2023/06/22 16:45:51;;;;;;;;;;;;;;;;;;4395151;32;67669;-59
2023/06/22 16:48:38;;;;;;;5.87;2.30;;;;;;;;;;4399727;32;71139;-59
2023/06/22 16:51:24;;;;;;;4.72;2.33;;;;;;;;;;4387876;32;65945;-59
2023/06/22 16:54:11;;;;;;;;;;;;;;;;;;4400203;32;68518;-58
2023/06/22 16:57:01;;;;;;;8.73;2.70;;;;;;;;;;4399467;32;60097;-58
2023/06/22 16:59:50;;;;;;;5.25;2.80;;;;;;;;;;4366601;32;69374;-59
2023/06/22 17:02:46;;;;;;;3.75;2.47;;;;;;;;;;4398970;32;68479;-57
2023/06/22 17:05:33;;;;;;;5.97;2.87;;;;;;;;;;4398674;32;66775;-60
2023/06/22 17:08:19;;;;;;;3.00;2.30;;;;;;;;;;4377866;32;70792;-59